Terminal Aerodrome Forecast
Issued by NWS

Home | Current Version | Previous Version | Text Only | Print | Product List | Glossary On
Versions: 1 2 3 4 5 6 7 8 9 10 11 12 13 14 15 16
000
FTUS41 KBTV 022320
TAFRUT
TAF
KRUT 022320Z 0300/0324 11005KT P6SM BKN015 OVC025
     FM030700 VRB03KT P6SM SCT003 OVC020
     FM031500 35004KT P6SM BKN060
      AMD LTD TO CLD VIS AND WIND=

USA.gov is the U.S. government's official web portal to all federal, state and local government web resources and services.